Time;durP1;ratioP1;P1;durP2;ratioP2;P2;SDS_P1;SDS_P2;PMS_P1;PMS_P2;Temp;Humidity;BMP_temperature;BMP_pressure;BME280_temperature;BME280_humidity;BME280_pressure;Samples;Min_cycle;Max_cycle;Signal;HPM_P1;HPM_P2
2021/07/01 00:00:44;;;;;;;;;13.00;10.50;;;;;18.25;100.00;101571.44;5078638;27;45418;-65
2021/07/01 00:03:10;;;;;;;;;12.00;12.00;;;;;18.22;100.00;101572.41;5078557;27;45549;-66
2021/07/01 00:08:57;;;;;;;;;13.00;13.00;;;;;18.25;100.00;101582.88;5079128;28;45339;-65
2021/07/01 00:11:23;;;;;;;;;12.00;11.75;;;;;18.21;100.00;101583.03;5078608;27;46471;-65
2021/07/01 00:13:48;;;;;;;;;12.25;10.25;;;;;18.19;100.00;101576.94;5077085;28;45607;-66
2021/07/01 00:16:14;;;;;;;;;12.25;11.25;;;;;18.23;100.00;101581.19;5078716;27;45273;-65
2021/07/01 00:18:39;;;;;;;;;11.75;10.25;;;;;18.25;100.00;101587.28;5079031;28;45224;-66
2021/07/01 00:21:04;;;;;;;;;13.25;11.25;;;;;18.22;100.00;101580.34;5078610;27;45737;-64
2021/07/01 00:23:30;;;;;;;;;12.25;11.00;;;;;18.16;100.00;101569.97;5078663;27;45447;-66
2021/07/01 00:25:55;;;;;;;;;11.50;10.25;;;;;18.18;100.00;101578.72;5078885;27;45342;-66
2021/07/01 00:28:21;;;;;;;;;11.75;10.50;;;;;18.15;100.00;101578.81;5077307;28;45512;-66
2021/07/01 00:30:46;;;;;;;;;14.00;12.00;;;;;18.18;100.00;101589.28;5078748;27;46358;-66
2021/07/01 00:33:11;;;;;;;;;11.00;10.25;;;;;18.17;100.00;101586.69;5078459;27;45438;-66
2021/07/01 00:38:59;;;;;;;;;11.75;11.00;;;;;18.11;100.00;101581.59;5069176;28;45400;-66
2021/07/01 00:41:25;;;;;;;;;13.00;10.25;;;;;18.11;100.00;101585.13;5078132;27;46377;-67
2021/07/01 00:43:50;;;;;;;;;13.25;12.00;;;;;18.08;100.00;101584.31;5078040;27;45252;-65
2021/07/01 00:46:16;;;;;;;;;10.00;9.25;;;;;18.02;100.00;101575.69;5078418;27;45210;-65
2021/07/01 00:48:42;;;;;;;;;13.00;9.50;;;;;18.03;100.00;101584.47;5077137;28;45383;-65
2021/07/01 00:51:07;;;;;;;;;14.50;13.00;;;;;17.87;100.00;101562.06;5078119;27;46345;-65
2021/07/01 00:53:33;;;;;;;;;16.50;12.75;;;;;17.99;100.00;101575.78;5077916;27;45325;-64
2021/07/01 00:55:59;;;;;;;;;10.25;9.25;;;;;17.95;100.00;101575.94;5078139;27;45366;-64
2021/07/01 00:58:25;;;;;;;;;11.75;11.75;;;;;17.95;100.00;101582.09;5078340;27;45374;-65
2021/07/01 01:01:23;;;;;;;;;11.25;11.25;;;;;17.88;100.00;101570.00;5076437;28;47243;-65
2021/07/01 01:03:42;;;;;;;;;13.25;12.50;;;;;17.91;100.00;101584.88;5077576;27;45312;-66
2021/07/01 01:06:08;;;;;;;;;11.00;11.00;;;;;17.90;100.00;101578.72;5077824;27;45465;-65
2021/07/01 01:08:33;;;;;;;;;12.75;11.00;;;;;17.82;100.00;101566.66;5077977;27;45375;-65
2021/07/01 01:10:59;;;;;;;;;11.25;10.50;;;;;17.87;100.00;101576.16;5077510;27;46849;-66
2021/07/01 01:13:25;;;;;;;;;13.25;12.75;;;;;17.88;100.00;101579.66;5077642;27;45402;-64
2021/07/01 01:15:56;;;;;;;;;15.50;12.00;;;;;17.88;100.00;101585.84;5076295;28;45376;-65
2021/07/01 01:18:22;;;;;;;;;11.25;10.50;;;;;17.89;100.00;101581.41;5077995;27;45330;-65
2021/07/01 01:24:09;;;;;;;;;11.50;10.00;;;;;17.91;100.00;101574.31;5077468;28;45320;-65
2021/07/01 01:26:34;;;;;;;;;12.00;10.50;;;;;17.84;100.00;101567.47;5077622;27;45481;-66
2021/07/01 01:29:03;;;;;;;;;12.75;11.75;;;;;17.86;100.00;101576.19;5077731;27;45296;-66
2021/07/01 01:31:28;;;;;;;;;16.75;12.25;;;;;17.68;100.00;101546.81;5076974;27;47156;-65
2021/07/01 01:33:54;;;;;;;;;12.50;11.25;;;;;17.79;100.00;101569.38;5077093;27;45451;-65
2021/07/01 01:36:20;;;;;;;;;10.50;8.50;;;;;17.80;100.00;101571.13;5078015;27;45422;-65
2021/07/01 01:38:45;;;;;;;;;11.00;10.75;;;;;17.86;100.00;101578.84;5075966;28;45480;-64
2021/07/01 01:41:11;;;;;;;;;14.25;12.00;;;;;17.84;100.00;101581.53;5077353;27;46240;-65
2021/07/01 01:43:36;;;;;;;;;12.00;10.00;;;;;17.82;100.00;101575.44;5077569;27;45706;-65
2021/07/01 01:46:02;;;;;;;;;13.25;11.75;;;;;17.84;100.00;101583.31;5077668;27;45390;-65
2021/07/01 01:48:27;;;;;;;;;11.25;11.25;;;;;17.78;100.00;101562.38;5077379;27;45418;-65
2021/07/01 01:54:14;;;;;;;;;11.25;10.75;;;;;17.74;100.00;101577.47;5077014;28;45320;-65
2021/07/01 01:56:46;;;;;;;;;14.50;12.00;;;;;17.67;100.00;101565.34;5077468;27;45350;-65
2021/07/01 01:59:12;;;;;;;;;12.75;11.75;;;;;17.68;100.00;101567.09;5077730;27;45311;-65
2021/07/01 02:01:38;;;;;;;;;12.50;11.25;;;;;17.60;100.00;101566.41;5076945;27;47266;-65
2021/07/01 02:04:04;;;;;;;;;11.50;11.00;;;;;17.62;100.00;101572.50;5076835;27;45295;-65
2021/07/01 02:06:29;;;;;;;;;10.25;10.00;;;;;17.58;100.00;101570.88;5077139;27;45406;-65
2021/07/01 02:08:54;;;;;;;;;15.50;14.25;;;;;17.49;100.00;101555.31;5076914;27;45319;-66
2021/07/01 02:11:20;;;;;;;;;10.75;9.75;;;;;17.51;100.00;101570.19;5077161;27;47343;-65
2021/07/01 02:13:46;;;;;;;;;10.25;10.25;;;;;17.44;100.00;101564.25;5076843;27;45580;-65
2021/07/01 02:16:11;;;;;;;;;16.75;14.25;;;;;17.35;100.00;101556.56;5076923;28;45357;-65
2021/07/01 02:18:38;;;;;;;;;11.75;10.75;;;;;17.39;100.00;101566.13;5077546;27;45418;-66
2021/07/01 02:24:25;;;;;;;;;10.00;9.00;;;;;17.32;100.00;101567.22;5080248;28;45262;-65
2021/07/01 02:26:50;;;;;;;;;11.50;11.00;;;;;17.30;100.00;101563.78;5080595;27;45300;-67
2021/07/01 02:29:16;;;;;;;;;15.75;13.00;;;;;17.25;100.00;101556.91;5080385;27;45408;-66
2021/07/01 02:31:41;;;;;;;;;11.25;11.25;;;;;17.24;100.00;101553.41;5079084;28;46284;-66
2021/07/01 02:34:07;;;;;;;;;12.00;11.50;;;;;17.20;100.00;101561.41;5079868;27;45452;-67
2021/07/01 02:36:32;;;;;;;;;17.50;13.25;;;;;17.24;100.00;101574.50;5080567;27;45400;-65
2021/07/01 02:38:57;;;;;;;;;11.75;11.00;;;;;17.20;100.00;101564.06;5080392;27;45357;-65
2021/07/01 02:41:23;;;;;;;;;12.75;12.00;;;;;17.23;100.00;101566.63;5080112;27;45710;-65
2021/07/01 02:43:48;;;;;;;;;12.50;11.00;;;;;17.18;100.00;101566.75;5079943;27;45303;-65
2021/07/01 02:46:14;;;;;;;;;16.00;14.00;;;;;17.18;100.00;101558.81;5079177;28;45284;-65
2021/07/01 02:48:40;;;;;;;;;13.50;11.50;;;;;17.14;100.00;101554.56;5080023;27;45185;-65
2021/07/01 02:54:27;;;;;;;;;12.50;10.75;;;;;17.10;100.00;101551.13;5079941;28;45286;-65
2021/07/01 02:56:53;;;;;;;;;14.25;13.00;;;;;17.05;100.00;101544.28;5079986;27;45303;-65
2021/07/01 02:59:19;;;;;;;;;17.00;13.75;;;;;17.10;100.00;101560.81;5079960;27;45390;-65
2021/07/01 03:01:47;;;;;;;;;14.25;12.00;;;;;17.09;100.00;101559.09;5079613;27;45621;-65
2021/07/01 03:07:34;;;;;;;;;15.00;12.25;;;;;17.10;100.00;101559.06;5079395;28;45552;-66
2021/07/01 03:09:59;;;;;;;;;13.50;11.25;;;;;17.11;100.00;101559.91;5080111;27;45253;-66
2021/07/01 03:12:25;;;;;;;;;13.75;10.50;;;;;17.10;100.00;101559.06;5078067;28;46190;-66
2021/07/01 03:14:51;;;;;;;;;16.75;13.75;;;;;17.02;100.00;101544.34;5079664;27;45343;-66
2021/07/01 03:17:16;;;;;;;;;13.50;12.50;;;;;17.08;100.00;101555.59;5079790;27;45418;-66
2021/07/01 03:23:03;;;;;;;;;15.50;11.75;;;;;17.11;100.00;101559.91;5078839;28;45296;-66
2021/07/01 03:25:29;;;;;;;;;15.50;14.50;;;;;17.09;100.00;101556.47;5079528;27;45382;-65
2021/07/01 03:27:56;;;;;;;;;17.00;12.50;;;;;17.05;100.00;101558.31;5079033;27;45359;-66
2021/07/01 03:30:21;;;;;;;;;13.00;11.75;;;;;17.01;100.00;101548.78;5079538;27;45490;-66
2021/07/01 03:32:46;;;;;;;;;18.75;13.25;;;;;16.97;100.00;101547.09;5077783;27;47238;-66
2021/07/01 03:38:35;;;;;;;;;15.50;12.00;;;;;16.97;100.00;101557.66;5079245;27;45424;-65
2021/07/01 03:41:00;;;;;;;;;15.50;12.75;;;;;16.93;100.00;101547.22;5079330;27;45305;-65
2021/07/01 03:43:25;;;;;;;;;13.75;11.25;;;;;16.90;100.00;101542.03;5079049;27;47092;-65
2021/07/01 03:45:51;;;;;;;;;15.50;13.25;;;;;16.91;100.00;101549.91;5079118;27;45315;-65
2021/07/01 03:48:17;;;;;;;;;15.00;11.25;;;;;16.83;100.00;101538.72;5079543;28;45323;-65
2021/07/01 03:54:04;;;;;;;;;18.25;14.50;;;;;16.87;100.00;101553.56;5078833;28;45303;-66
2021/07/01 03:56:40;;;;;;;;;15.25;12.75;;;;;16.84;100.00;101559.78;5078898;27;45350;-65
2021/07/01 03:59:18;;;;;;;;;17.00;12.50;;;;;16.84;100.00;101561.56;5079061;27;45564;-65
2021/07/01 04:01:44;;;;;;;;;17.25;15.75;;;;;16.80;100.00;101554.63;5079523;27;45392;-65
2021/07/01 04:04:09;;;;;;;;;15.25;12.50;;;;;16.79;100.00;101556.41;5079132;27;46197;-65
2021/07/01 04:10:04;;;;;;;;;17.75;15.00;;;;;16.76;100.00;101558.25;5078731;28;45485;-65
2021/07/01 04:12:29;;;;;;;;;15.75;13.00;;;;;16.68;100.00;101550.53;5078903;27;45721;-65
2021/07/01 04:14:55;;;;;;;;;16.00;13.50;;;;;16.65;100.00;101550.59;5078318;27;46354;-65
2021/07/01 04:17:20;;;;;;;;;15.25;14.25;;;;;16.66;100.00;101552.34;5078499;27;45531;-65
2021/07/01 04:19:45;;;;;;;;;13.75;11.50;;;;;16.68;100.00;101561.09;5078722;27;45257;-65
2021/07/01 04:22:11;;;;;;;;;18.50;14.00;;;;;16.68;100.00;101563.72;5078711;27;45351;-65
2021/07/01 04:24:36;;;;;;;;;17.50;16.75;;;;;16.63;100.00;101548.91;5078442;27;46356;-65
2021/07/01 04:27:02;;;;;;;;;14.25;14.25;;;;;16.67;100.00;101564.63;5078233;27;45312;-66
2021/07/01 04:29:27;;;;;;;;;16.75;15.75;;;;;16.72;100.00;101562.72;5078630;27;45480;-65
2021/07/01 04:31:53;;;;;;;;;17.50;15.25;;;;;16.71;100.00;101566.28;5078120;27;45564;-66
2021/07/01 04:34:18;;;;;;;;;18.50;17.00;;;;;16.75;100.00;101573.22;5077969;27;46627;-66
2021/07/01 04:40:08;;;;;;;;;17.25;15.50;;;;;16.79;100.00;101569.59;5066670;27;45475;-66
2021/07/01 04:42:35;;;;;;;;;14.75;14.00;;;;;16.83;100.00;101580.91;5078534;28;45363;-66
2021/07/01 04:45:00;;;;;;;;;17.75;16.25;;;;;16.83;100.00;101576.50;5076823;27;47378;-66
2021/07/01 04:47:26;;;;;;;;;17.75;16.25;;;;;16.84;100.00;101578.25;5077671;27;45377;-66
2021/07/01 04:49:51;;;;;;;;;20.25;15.25;;;;;16.87;100.00;101579.06;5078126;27;45414;-65
2021/07/01 04:52:17;;;;;;;;;17.00;17.00;;;;;16.88;100.00;101576.38;5078443;27;45321;-65
2021/07/01 04:54:42;;;;;;;;;18.00;15.75;;;;;16.83;100.00;101568.59;5077115;27;46262;-68
2021/07/01 04:57:08;;;;;;;;;14.50;12.25;;;;;16.92;100.00;101578.03;5077834;27;45295;-68
2021/07/01 04:59:33;;;;;;;;;14.00;12.75;;;;;16.93;100.00;101574.47;5078279;27;45431;-67
2021/07/01 05:01:59;;;;;;;;;18.00;15.00;;;;;17.00;100.00;101580.47;5078268;27;45272;-68
2021/07/01 05:04:24;;;;;;;;;18.25;15.50;;;;;17.04;100.00;101592.66;5077650;27;46206;-68
2021/07/01 05:10:14;;;;;;;;;30.75;25.00;;;;;17.17;100.00;101588.75;5077136;28;45667;-67
2021/07/01 05:12:39;;;;;;;;;18.75;15.25;;;;;17.19;100.00;101586.09;5077104;27;45274;-68
2021/07/01 05:15:05;;;;;;;;;21.50;19.50;;;;;17.22;100.00;101588.66;5076608;27;45485;-67
2021/07/01 05:17:33;;;;;;;;;18.50;16.00;;;;;17.18;100.00;101582.56;5076767;27;45376;-67
2021/07/01 05:20:02;;;;;;;;;18.00;15.25;;;;;17.32;100.00;101598.91;5076456;27;45533;-68
2021/07/01 05:22:27;;;;;;;;;15.00;11.75;;;;;17.25;100.00;101586.78;5076912;27;45492;-68
2021/07/01 05:24:53;;;;;;;;;17.75;16.00;;;;;17.34;100.00;101589.16;5076628;27;47240;-66
2021/07/01 05:27:18;;;;;;;;;19.00;18.00;;;;;17.37;100.00;101588.19;5076430;27;45360;-66
2021/07/01 05:29:43;;;;;;;;;21.25;20.25;;;;;17.36;100.00;101587.34;5076638;27;45311;-66
2021/07/01 05:32:09;;;;;;;;;23.00;20.25;;;;;17.32;100.00;101585.69;5076849;27;45538;-67
2021/07/01 05:34:36;;;;;;;;;19.00;16.25;;;;;17.32;100.00;101590.97;5075062;28;46218;-66
2021/07/01 05:40:23;;;;;;;;;21.25;16.75;;;;;17.36;100.00;101591.75;5073766;28;45268;-68
2021/07/01 05:42:48;;;;;;;;;19.75;17.75;;;;;17.43;100.00;101604.75;5077056;27;45308;-66
2021/07/01 05:45:14;;;;;;;;;22.00;19.00;;;;;17.47;100.00;101600.25;5076669;28;46301;-67
2021/07/01 05:47:40;;;;;;;;;18.75;16.75;;;;;17.51;100.00;101593.09;5077138;27;45310;-67
2021/07/01 05:50:08;;;;;;;;;19.25;19.00;;;;;17.62;100.00;101596.28;5077294;27;45384;-67
2021/07/01 05:52:35;;;;;;;;;20.00;17.00;;;;;17.70;100.00;101596.97;5077614;27;45405;-65
2021/07/01 05:55:00;;;;;;;;;19.25;16.75;;;;;17.83;100.00;101594.78;5076604;27;47122;-65
2021/07/01 05:57:30;;;;;;;;;19.50;16.75;;;;;17.93;100.00;101598.91;5076164;27;45307;-64
2021/07/01 05:59:55;;;;;;;;;19.75;19.00;;;;;18.02;100.00;101593.31;5077153;27;45265;-64
2021/07/01 06:02:22;;;;;;;;;19.00;17.25;;;;;18.02;100.00;101594.19;5077249;27;45273;-66
2021/07/01 06:04:47;;;;;;;;;19.50;16.25;;;;;18.08;100.00;101598.41;5077001;27;46406;-65
2021/07/01 06:10:38;;;;;;;;;21.25;17.25;;;;;18.17;100.00;101605.19;5076768;28;45250;-65
2021/07/01 06:13:06;;;;;;;;;23.00;20.00;;;;;18.17;100.00;101607.84;5076949;27;45406;-65
2021/07/01 06:15:33;;;;;;;;;22.50;20.50;;;;;18.15;100.00;101602.59;5076776;28;47105;-66
2021/07/01 06:18:00;;;;;;;;;24.00;21.00;;;;;18.16;100.00;101608.75;5076710;27;45206;-65
2021/07/01 06:20:25;;;;;;;;;23.75;19.50;;;;;18.17;100.00;101605.19;5076610;27;45317;-66
2021/07/01 06:22:52;;;;;;;;;24.75;18.75;;;;;18.18;100.00;101606.91;5076806;27;45276;-66
2021/07/01 06:25:18;;;;;;;;;23.25;18.00;;;;;18.10;100.00;101586.00;5076864;27;46809;-66
2021/07/01 06:27:44;;;;;;;;;22.50;17.75;;;;;18.30;100.00;101606.50;5076633;27;45406;-66
2021/07/01 06:30:16;;;;;;;;;20.00;17.25;;;;;18.32;100.00;101608.19;5077118;27;45332;-66
2021/07/01 06:32:45;;;;;;;;;19.50;16.75;;;;;18.20;100.00;101586.59;5075255;28;45606;-66
2021/07/01 06:41:46;;;;;;;;;20.25;18.00;;;;;18.59;100.00;101601.16;5073384;28;45376;-65
2021/07/01 06:44:12;;;;;;;;;17.75;17.00;;;;;18.75;100.00;101605.94;5076929;27;45292;-66
2021/07/01 06:46:39;;;;;;;;;21.75;20.00;;;;;18.84;100.00;101613.56;5076442;27;46094;-66
2021/07/01 06:49:05;;;;;;;;;18.25;17.75;;;;;18.90;100.00;101610.69;5076430;27;45449;-65
2021/07/01 06:51:40;;;;;;;;;18.25;16.50;;;;;18.98;100.00;101617.44;5076407;27;45381;-66
2021/07/01 06:54:11;;;;;;;;;18.00;17.25;;;;;19.06;100.00;101613.69;5076400;27;45413;-66
2021/07/01 06:56:40;;;;;;;;;22.00;16.25;;;;;19.07;100.00;101607.47;5076202;27;46448;-66
2021/07/01 06:59:09;;;;;;;;;17.50;14.75;;;;;19.05;100.00;101602.22;5076412;27;45408;-66
2021/07/01 07:01:35;;;;;;;;;18.25;17.00;;;;;19.09;100.00;101622.38;5076416;27;45320;-67
2021/07/01 07:04:01;;;;;;;;;19.50;18.25;;;;;19.05;100.00;101618.09;5076644;27;45445;-66
2021/07/01 07:06:26;;;;;;;;;21.25;17.75;;;;;19.03;100.00;101617.31;5076228;27;45624;-66
2021/07/01 07:08:52;;;;;;;;;19.75;17.00;;;;;19.00;100.00;101608.56;5079557;27;45254;-65
2021/07/01 07:11:17;;;;;;;;;20.75;17.25;;;;;18.94;100.00;101622.91;5079332;27;45249;-65
2021/07/01 07:13:43;;;;;;;;;20.75;19.25;;;;;18.88;100.00;101620.47;5079883;27;45394;-66
2021/07/01 07:16:10;;;;;;;;;19.00;16.00;;;;;18.82;100.00;101624.19;5079727;27;45382;-66
2021/07/01 07:18:37;;;;;;;;;18.00;16.00;;;;;18.86;100.00;101630.25;5079442;27;45426;-66
2021/07/01 07:21:07;;;;;;;;;18.50;17.00;;;;;18.86;100.00;101636.41;5079514;27;45421;-65
2021/07/01 07:23:36;;;;;;;;;19.50;18.00;;;;;18.90;100.00;101632.72;5079691;27;45360;-65
2021/07/01 07:26:07;;;;;;;;;20.75;18.50;;;;;18.89;100.00;101614.25;5079254;27;47224;-66
2021/07/01 07:28:36;;;;;;;;;24.50;20.00;;;;;19.06;100.00;101629.56;5079537;27;45815;-65
2021/07/01 07:31:03;;;;;;;;;25.25;21.25;;;;;19.15;100.00;101637.16;5079416;27;45383;-66
2021/07/01 07:33:29;;;;;;;;;25.25;20.75;;;;;19.18;100.00;101622.03;5079347;27;45433;-66
2021/07/01 07:35:55;;;;;;;;;21.50;18.50;;;;;19.31;100.00;101626.91;5079373;27;45399;-66
2021/07/01 07:38:24;;;;;;;;;22.00;20.25;;;;;19.41;100.00;101621.19;5079086;27;45220;-65
2021/07/01 07:40:50;;;;;;;;;22.25;19.75;;;;;19.44;100.00;101621.06;5079142;27;45347;-65
2021/07/01 07:43:19;;;;;;;;;23.50;20.75;;;;;19.52;100.00;101626.13;5079541;27;45385;-66
2021/07/01 07:45:46;;;;;;;;;21.50;19.50;;;;;19.52;100.00;101608.44;5078921;28;45862;-66
2021/07/01 07:48:12;;;;;;;;;22.75;20.25;;;;;19.61;100.00;101615.19;5079275;27;45300;-66
2021/07/01 07:50:39;;;;;;;;;24.50;24.00;;;;;19.71;100.00;101616.59;5079121;27;45301;-66
2021/07/01 07:56:36;;;;;;;;;25.00;23.50;;;;;19.85;100.00;101627.50;5078546;28;45371;-66
2021/07/01 07:59:03;;;;;;;;;21.75;19.25;;;;;19.85;100.00;101618.69;5078745;28;45620;-65
2021/07/01 08:01:33;;;;;;;;;22.75;21.00;;;;;19.83;100.00;101629.34;5078468;27;45538;-66
2021/07/01 08:04:03;;;;;;;;;24.50;21.25;;;;;19.92;100.00;101622.84;5079010;27;45262;-65
2021/07/01 08:06:29;;;;;;;;;21.25;20.00;;;;;19.98;100.00;101619.09;5078382;27;45470;-65
2021/07/01 08:08:55;;;;;;;;;23.00;19.25;;;;;20.09;100.00;101620.38;5077424;28;45427;-67
2021/07/01 08:11:23;;;;;;;;;20.75;18.50;;;;;20.15;100.00;101628.09;5078884;28;45371;-65
2021/07/01 08:13:54;;;;;;;;;22.50;17.25;;;;;20.21;100.00;101624.34;5078535;27;45304;-66
2021/07/01 08:16:22;;;;;;;;;21.75;18.25;;;;;20.31;100.00;101623.03;5077098;28;46728;-66
2021/07/01 08:18:48;;;;;;;;;17.75;17.75;;;;;20.39;100.00;101615.63;5077777;27;45600;-65
2021/07/01 08:21:16;;;;;;;;;22.00;19.25;;;;;20.51;100.00;101624.91;5078908;27;45274;-65
2021/07/01 08:23:43;;;;;;;;;21.75;19.75;;;;;20.60;100.00;101618.38;5078582;27;45539;-66
2021/07/01 08:26:10;;;;;;;;;17.75;16.75;;;;;20.70;100.00;101625.00;5078456;27;45472;-66
2021/07/01 08:28:35;;;;;;;;;22.25;21.00;;;;;20.79;100.00;101616.63;5078328;27;45629;-66
2021/07/01 08:31:13;;;;;;;;;23.00;21.50;;;;;20.85;100.00;101602.25;5078573;27;45731;-66
2021/07/01 08:33:42;;;;;;;;;25.25;22.25;;;;;20.96;100.00;101610.59;5078502;27;45281;-66
2021/07/01 08:36:20;;;;;;;;;26.50;22.75;;;;;20.89;100.00;101606.50;5077825;27;47616;-66
2021/07/01 08:38:47;;;;;;;;;23.25;18.50;;;;;20.95;100.00;101619.50;5078584;27;45393;-66
2021/07/01 08:41:19;;;;;;;;;24.00;22.25;;;;;21.01;100.00;101614.78;5078255;27;45371;-66
2021/07/01 08:43:54;;;;;;;;;21.00;18.75;;;;;21.12;100.00;101616.97;5078014;27;45457;-66
2021/07/01 08:46:21;;;;;;;;;21.25;19.50;;;;;21.27;100.00;101615.44;5077801;27;46255;-66
2021/07/01 08:49:04;;;;;;;;;22.25;20.50;;;;;21.42;100.00;101620.09;5078080;27;45630;-66
2021/07/01 08:51:38;;;;;;;;;22.25;17.50;;;;;21.56;100.00;101608.84;5078458;27;45469;-66
2021/07/01 08:54:06;;;;;;;;;22.00;20.25;;;;;21.69;100.00;101623.25;5078176;27;45443;-66
2021/07/01 08:56:37;;;;;;;;;24.50;20.75;;;;;21.83;100.00;101602.22;5078178;27;45503;-66
2021/07/01 08:59:07;;;;;;;;;19.50;18.25;;;;;22.27;100.00;101616.06;5078031;27;45558;-66
2021/07/01 09:01:35;;;;;;;;;19.75;18.00;;;;;22.84;100.00;101607.91;5078027;28;45669;-65
2021/07/01 09:04:03;;;;;;;;;22.75;20.75;;;;;23.43;100.00;101606.56;5078421;28;45264;-66
2021/07/01 09:06:34;;;;;;;;;20.25;17.25;;;;;23.88;100.00;101600.53;5077564;27;46906;-66
2021/07/01 09:09:03;;;;;;;;;15.75;15.25;;;;;24.31;100.00;101603.47;5077467;27;45292;-67
2021/07/01 09:11:34;;;;;;;;;19.00;17.75;;;;;24.61;100.00;101604.31;5078153;27;45328;-67
2021/07/01 09:14:04;;;;;;;;;20.75;18.75;;;;;25.00;100.00;101597.59;5078091;27;45328;-67
2021/07/01 09:16:31;;;;;;;;;21.25;19.75;;;;;25.29;100.00;101580.59;5077507;27;46523;-67
2021/07/01 09:18:59;;;;;;;;;16.75;15.75;;;;;25.64;100.00;101590.91;5077984;27;45407;-67
2021/07/01 09:21:25;;;;;;;;;12.00;10.25;;;;;25.87;100.00;101595.66;5077826;27;45287;-67
2021/07/01 09:23:52;;;;;;;;;13.00;13.00;;;;;25.99;100.00;101585.97;5077946;28;45292;-66
2021/07/01 09:26:25;;;;;;;;;14.75;14.00;;;;;26.09;100.00;101594.25;5077431;27;46132;-66
2021/07/01 09:28:54;;;;;;;;;21.25;18.75;;;;;26.08;100.00;101592.53;5077696;27;45517;-66
2021/07/01 09:31:22;;;;;;;;;16.25;12.25;;;;;25.98;100.00;101588.75;5077594;27;45394;-67
2021/07/01 09:33:50;;;;;;;;;15.75;14.75;;;;;25.89;100.00;101599.09;5077698;27;45591;-67
2021/07/01 09:36:18;;;;;;;;;14.25;13.75;;;;;25.88;100.00;101600.06;5077382;27;45454;-68
2021/07/01 09:38:45;;;;;;;;;14.00;14.00;;;;;25.81;100.00;101584.50;5077716;27;45536;-66
2021/07/01 09:41:13;;;;;;;;;15.25;15.00;;;;;25.84;100.00;101593.19;5077242;27;45336;-66
2021/07/01 09:43:40;;;;;;;;;14.75;14.25;;;;;25.84;100.00;101597.69;5077844;28;45317;-67
2021/07/01 09:46:12;;;;;;;;;13.75;12.25;;;;;25.89;100.00;101595.56;5077013;27;46641;-68
2021/07/01 09:48:44;;;;;;;;;17.50;15.50;;;;;26.01;100.00;101596.56;5077360;27;45573;-67
2021/07/01 09:51:09;;;;;;;;;17.00;14.50;;;;;26.06;100.00;101600.69;5077532;27;45423;-67
2021/07/01 09:57:00;;;;;;;;;19.00;16.25;;;;;26.50;100.00;101603.13;5076639;28;45314;-67
2021/07/01 09:59:33;;;;;;;;;21.00;19.50;;;;;26.87;100.00;101608.63;5077178;27;45717;-67
2021/07/01 10:02:14;;;;;;;;;22.75;20.25;;;;;27.23;100.00;101602.56;5076955;27;45384;-67
2021/07/01 10:04:44;;;;;;;;;19.00;17.75;;;;;27.55;100.00;101592.22;5077093;27;45589;-67
2021/07/01 10:07:11;;;;;;;;;19.75;16.00;;;;;27.67;100.00;101596.75;5076944;27;46697;-67
2021/07/01 10:09:36;;;;;;;;;18.50;17.25;;;;;27.59;100.00;101601.75;5076735;27;45552;-66
2021/07/01 10:12:13;;;;;;;;;16.75;16.25;;;;;27.38;100.00;101595.25;5077068;27;45601;-67
2021/07/01 10:14:39;;;;;;;;;23.00;19.00;;;;;27.06;100.00;101600.22;5076997;27;45296;-66
2021/07/01 10:17:16;;;;;;;;;20.00;17.75;;;;;26.77;100.00;101604.88;5076868;28;46361;-66
2021/07/01 10:19:42;;;;;;;;;21.00;20.50;;;;;26.40;100.00;101603.81;5076627;27;45459;-66
2021/07/01 10:22:10;;;;;;;;;19.75;19.25;;;;;26.06;100.00;101600.69;5077200;27;45362;-66
2021/07/01 10:24:58;;;;;;;;;18.50;16.75;;;;;25.78;100.00;101604.25;5075392;28;45498;-67
2021/07/01 10:27:41;;;;;;;;;17.50;16.00;;;;;25.57;100.00;101605.59;5076253;27;45270;-66
2021/07/01 10:30:23;;;;;;;;;18.00;16.75;;;;;25.43;100.00;101600.28;5076696;27;45339;-67
2021/07/01 10:32:54;;;;;;;;;17.50;16.75;;;;;25.43;100.00;101594.94;5076788;27;45390;-66
2021/07/01 10:35:35;;;;;;;;;21.25;17.50;;;;;25.66;100.00;101591.66;5076948;27;45359;-67
2021/07/01 10:38:02;;;;;;;;;19.25;16.75;;;;;25.94;100.00;101591.63;5076222;27;47441;-66
2021/07/01 10:40:29;;;;;;;;;20.25;19.00;;;;;26.09;100.00;101591.59;5076317;27;45735;-66
2021/07/01 10:42:55;;;;;;;;;19.75;19.50;;;;;26.25;100.00;101594.94;5078828;27;45329;-66
2021/07/01 10:45:22;;;;;;;;;20.00;16.00;;;;;26.42;100.00;101596.53;5080367;27;45496;-66
2021/07/01 10:47:47;;;;;;;;;19.50;18.25;;;;;26.55;100.00;101597.44;5078716;28;47334;-66
2021/07/01 10:50:19;;;;;;;;;20.50;19.25;;;;;26.48;100.00;101609.50;5079878;27;45351;-66
2021/07/01 10:52:45;;;;;;;;;19.75;18.25;;;;;26.33;100.00;101598.00;5080453;27;45319;-66
2021/07/01 10:55:12;;;;;;;;;20.25;18.25;;;;;26.14;100.00;101592.13;5080289;27;45315;-66
2021/07/01 10:57:56;;;;;;;;;30.00;20.75;;;;;26.08;100.00;101598.75;5079979;28;45268;-67
2021/07/01 11:01:00;;;;;;;;;16.00;15.00;;;;;26.07;100.00;101601.53;5079880;27;45414;-67
2021/07/01 11:03:30;;;;;;;;;23.50;18.75;;;;;26.04;100.00;101593.72;5057302;28;45290;-67
2021/07/01 11:05:57;;;;;;;;;17.00;16.00;;;;;26.00;100.00;101597.53;5057378;28;45397;-67
2021/07/01 11:08:30;;;;;;;;;18.25;16.25;;;;;25.99;100.00;101601.16;5056752;28;47512;-67
2021/07/01 11:10:57;;;;;;;;;17.00;16.25;;;;;25.90;100.00;101602.63;5057067;28;45415;-66
2021/07/01 11:13:27;;;;;;;;;18.75;18.00;;;;;25.98;100.00;101599.44;5057290;28;45341;-66
2021/07/01 11:16:03;;;;;;;;;21.25;18.75;;;;;26.19;100.00;101596.22;5057636;28;45681;-66
2021/07/01 11:18:34;;;;;;;;;17.25;16.25;;;;;26.52;100.00;101605.69;5057184;28;45471;-67
2021/07/01 11:21:07;;;;;;;;;19.50;16.25;;;;;26.75;100.00;101599.63;5057023;28;45539;-69
2021/07/01 11:23:32;;;;;;;;;17.75;15.75;;;;;26.96;100.00;101604.47;5057261;28;45554;-67
2021/07/01 11:25:58;;;;;;;;;22.75;18.75;;;;;27.20;100.00;101602.78;5040614;28;45366;-67
2021/07/01 11:28:29;;;;;;;;;18.50;17.50;;;;;27.32;100.00;101593.00;5056692;28;47321;-66
2021/07/01 11:30:59;;;;;;;;;17.00;15.00;;;;;27.43;100.00;101596.66;5056805;28;45434;-67
2021/07/01 11:33:26;;;;;;;;;17.00;16.50;;;;;27.50;100.00;101597.06;5060935;28;45408;-67
2021/07/01 11:36:14;;;;;;;;;19.25;17.25;;;;;27.43;100.00;101591.28;5079509;27;45390;-67
2021/07/01 11:38:42;;;;;;;;;17.75;15.25;;;;;27.46;100.00;101599.13;5078997;27;46794;-67
2021/07/01 11:41:08;;;;;;;;;16.00;15.50;;;;;27.41;100.00;101595.91;5078867;27;45315;-66
2021/07/01 11:43:36;;;;;;;;;20.00;18.25;;;;;27.43;100.00;101599.34;5079172;27;45272;-69
2021/07/01 11:46:02;;;;;;;;;20.25;17.25;;;;;27.47;100.00;101594.59;5079343;27;45377;-68
2021/07/01 11:48:30;;;;;;;;;19.50;18.00;;;;;27.65;100.00;101601.38;5078858;27;45747;-67
2021/07/01 11:50:56;;;;;;;;;18.00;16.00;;;;;28.27;100.00;101597.72;5078773;27;45551;-67
2021/07/01 11:53:24;;;;;;;;;15.00;13.25;;;;;28.79;100.00;101591.94;5077741;27;45367;-67
2021/07/01 11:55:51;;;;;;;;;17.50;15.00;;;;;29.02;100.00;101600.09;5078912;27;45272;-66
2021/07/01 11:58:18;;;;;;;;;29.50;27.75;;;;;28.98;100.00;101598.63;5078683;27;47044;-66
2021/07/01 12:00:44;;;;;;;;;16.50;13.75;;;;;28.90;100.00;101593.81;5079115;28;45361;-68
2021/07/01 12:03:13;;;;;;;;;16.25;14.00;;;;;28.85;100.00;101586.09;5079212;27;45378;-67
2021/07/01 12:05:44;;;;;;;;;14.50;13.50;;;;;28.71;100.00;101582.72;5079231;27;45297;-67
2021/07/01 12:08:14;;;;;;;;;16.50;15.00;;;;;28.66;100.00;101583.09;5078849;27;45659;-66